createdAt,value
2018-04-27T00:00:22.148Z,97.00
2018-04-27T00:02:49.782Z,97.00
2018-04-27T00:05:17.396Z,97.00
2018-04-27T00:07:45.016Z,97.00
2018-04-27T00:10:12.636Z,97.00
2018-04-27T00:12:40.235Z,97.00
2018-04-27T00:15:07.856Z,97.00
2018-04-27T00:17:35.461Z,97.00
2018-04-27T00:20:03.071Z,97.00
2018-04-27T00:22:30.655Z,97.00
2018-04-27T00:24:58.286Z,97.00
2018-04-27T00:27:25.877Z,97.00
2018-04-27T00:29:53.481Z,97.00
2018-04-27T00:32:40.054Z,97.00
2018-04-27T00:35:07.664Z,97.00
2018-04-27T00:37:35.281Z,97.00
2018-04-27T00:40:02.879Z,97.00
2018-04-27T00:42:30.506Z,97.00
2018-04-27T00:44:58.103Z,97.00
2018-04-27T00:47:25.727Z,97.00
2018-04-27T00:49:53.758Z,97.00
2018-04-27T00:52:21.378Z,97.00
2018-04-27T00:55:10.621Z,97.00
2018-04-27T00:57:39.573Z,97.00
2018-04-27T01:00:09.216Z,97.00
2018-04-27T01:02:37.180Z,97.00
2018-04-27T01:05:12.189Z,97.00
2018-04-27T01:07:41.797Z,97.00
2018-04-27T01:13:22.051Z,97.00
2018-04-27T01:15:49.686Z,97.00
2018-04-27T01:18:17.301Z,97.00
2018-04-27T01:20:44.935Z,97.00
2018-04-27T01:23:12.496Z,97.00
2018-04-27T01:25:40.108Z,97.00
2018-04-27T01:28:08.085Z,97.00
2018-04-27T01:30:36.060Z,97.00
2018-04-27T01:33:03.599Z,97.00
2018-04-27T01:35:31.599Z,97.00
2018-04-27T01:37:59.161Z,97.00
2018-04-27T01:40:26.756Z,97.00
2018-04-27T01:42:54.347Z,97.00
2018-04-27T01:45:22.371Z,97.00
2018-04-27T01:47:49.951Z,97.00
2018-04-27T01:50:17.516Z,97.00
2018-04-27T01:52:45.130Z,97.00
2018-04-27T01:55:12.741Z,97.00
2018-04-27T01:57:40.353Z,97.00
2018-04-27T02:00:07.986Z,97.00
2018-04-27T02:02:36.012Z,97.00
2018-04-27T02:05:03.576Z,97.00
2018-04-27T02:07:31.191Z,97.00
2018-04-27T02:09:58.791Z,97.00
2018-04-27T02:12:26.379Z,97.00
2018-04-27T02:14:53.953Z,97.00
2018-04-27T02:17:21.924Z,97.00
2018-04-27T02:19:49.489Z,97.00
2018-04-27T02:22:17.042Z,97.00
2018-04-27T02:24:44.981Z,97.00
2018-04-27T02:27:12.549Z,97.00
2018-04-27T02:29:40.078Z,97.00
2018-04-27T02:32:07.679Z,97.00
2018-04-27T02:34:35.615Z,97.00
2018-04-27T02:37:03.174Z,97.00
2018-04-27T02:39:30.729Z,97.00
2018-04-27T02:41:58.324Z,97.00
2018-04-27T02:44:26.259Z,97.00
2018-04-27T02:46:53.819Z,97.00
2018-04-27T02:49:21.382Z,97.00
2018-04-27T02:51:48.909Z,97.00
2018-04-27T02:54:16.501Z,97.00
2018-04-27T02:56:44.098Z,97.00
2018-04-27T02:59:11.679Z,97.00
2018-04-27T03:01:41.168Z,97.00
2018-04-27T03:04:08.679Z,97.00
2018-04-27T03:06:36.239Z,97.00
2018-04-27T03:09:03.818Z,97.00
2018-04-27T03:11:31.361Z,97.00
2018-04-27T03:13:58.933Z,97.00
2018-04-27T03:16:26.898Z,97.00
2018-04-27T03:18:54.834Z,97.00
2018-04-27T03:21:22.392Z,97.00
2018-04-27T03:23:50.048Z,97.00
2018-04-27T03:26:17.546Z,97.00
2018-04-27T03:28:45.571Z,97.00
2018-04-27T03:31:13.199Z,97.00
2018-04-27T03:33:40.748Z,97.00
2018-04-27T03:36:08.308Z,97.00
2018-04-27T03:38:35.920Z,97.00
2018-04-27T03:41:03.476Z,97.00
2018-04-27T03:43:31.011Z,97.00
2018-04-27T03:45:58.581Z,97.00
2018-04-27T03:48:26.155Z,97.00
2018-04-27T03:50:53.714Z,97.00
2018-04-27T03:53:21.325Z,97.00
2018-04-27T03:55:48.912Z,97.00
2018-04-27T03:58:16.451Z,97.00
2018-04-27T04:00:55.744Z,97.00
2018-04-27T04:03:35.008Z,97.00
2018-04-27T04:06:02.538Z,97.00
2018-04-27T04:08:30.110Z,97.00
2018-04-27T04:10:57.715Z,97.00
2018-04-27T04:13:25.262Z,97.00
2018-04-27T04:15:52.823Z,97.00
2018-04-27T04:18:20.426Z,97.00
2018-04-27T04:20:48.118Z,97.00
2018-04-27T04:23:15.639Z,97.00
2018-04-27T04:25:43.643Z,97.00
2018-04-27T04:28:11.181Z,97.00
2018-04-27T04:30:39.156Z,97.00
2018-04-27T04:33:08.022Z,97.00
2018-04-27T04:35:35.572Z,97.00
2018-04-27T04:38:03.118Z,97.00
2018-04-27T04:40:30.651Z,97.00
2018-04-27T04:42:58.190Z,97.00
2018-04-27T04:45:26.130Z,97.00
2018-04-27T04:47:53.712Z,97.00
2018-04-27T04:50:22.010Z,97.00
2018-04-27T04:52:49.607Z,97.00
2018-04-27T04:55:17.238Z,97.00
2018-04-27T04:57:44.753Z,97.00
2018-04-27T05:00:12.724Z,97.00
2018-04-27T05:02:40.694Z,97.00
2018-04-27T05:05:08.279Z,97.00
2018-04-27T05:07:35.837Z,97.00
2018-04-27T05:10:03.786Z,97.00
2018-04-27T05:12:31.738Z,97.00
2018-04-27T05:14:59.283Z,97.00
2018-04-27T05:17:26.858Z,97.00
2018-04-27T05:19:54.876Z,97.00
2018-04-27T05:22:22.444Z,97.00
2018-04-27T05:24:50.010Z,97.00
2018-04-27T05:27:17.582Z,97.00
2018-04-27T05:29:45.160Z,97.00
2018-04-27T05:32:12.676Z,97.00
2018-04-27T05:34:40.265Z,97.00
2018-04-27T05:37:08.253Z,96.60
2018-04-27T05:39:36.204Z,96.50
2018-04-27T05:42:03.767Z,96.50
2018-04-27T05:44:31.367Z,94.90
2018-04-27T05:46:58.909Z,95.00
2018-04-27T05:49:26.864Z,92.10
2018-04-27T05:51:55.437Z,92.10
2018-04-27T05:54:23.000Z,91.20
2018-04-27T05:56:56.004Z,90.60
2018-04-27T05:59:23.610Z,90.10
2018-04-27T06:01:53.101Z,89.50
2018-04-27T06:04:20.709Z,89.00
2018-04-27T06:06:49.240Z,87.70
2018-04-27T06:09:16.860Z,87.70
2018-04-27T06:12:04.931Z,86.90
2018-04-27T06:14:33.434Z,86.80
2018-04-27T06:17:02.944Z,85.60
2018-04-27T06:19:30.529Z,85.50
2018-04-27T06:21:58.084Z,84.80
2018-04-27T06:24:25.705Z,84.50
2018-04-27T06:26:53.243Z,82.60
2018-04-27T06:29:23.549Z,82.50
2018-04-27T06:34:47.633Z,80.90
2018-04-27T06:37:15.166Z,80.10
2018-04-27T06:39:42.712Z,79.50
2018-04-27T06:42:10.234Z,78.90
2018-04-27T06:44:38.167Z,77.90
2018-04-27T06:47:05.676Z,77.90
2018-04-27T06:49:33.165Z,77.60
2018-04-27T06:52:00.688Z,76.80
2018-04-27T06:54:28.196Z,76.50
2018-04-27T06:56:55.702Z,76.20
2018-04-27T06:59:23.227Z,75.40
2018-04-27T07:01:50.696Z,75.30
2018-04-27T07:04:18.598Z,74.40
2018-04-27T07:06:46.104Z,74.40
2018-04-27T07:09:13.646Z,74.60
2018-04-27T07:11:41.195Z,74.80
2018-04-27T07:14:08.691Z,73.60
2018-04-27T07:16:36.603Z,74.20
2018-04-27T07:19:04.133Z,74.20
2018-04-27T07:21:31.625Z,74.30
2018-04-27T07:23:59.121Z,74.90
2018-04-27T07:26:26.604Z,75.80
2018-04-27T07:28:54.543Z,75.00
2018-04-27T07:31:22.051Z,75.00
2018-04-27T07:33:49.546Z,74.20
2018-04-27T07:36:17.070Z,73.70
2018-04-27T07:38:44.607Z,73.80
2018-04-27T07:41:12.137Z,74.10
2018-04-27T07:43:39.625Z,73.60
2018-04-27T07:46:07.152Z,73.40
2018-04-27T07:48:34.648Z,72.90
2018-04-27T07:51:03.030Z,73.60
2018-04-27T07:53:30.533Z,73.40
2018-04-27T07:55:58.044Z,72.60
2018-04-27T07:58:25.534Z,72.10
2018-04-27T08:00:53.074Z,71.30
2018-04-27T08:03:20.566Z,71.80
2018-04-27T08:05:48.086Z,71.10
2018-04-27T08:08:15.605Z,71.20
2018-04-27T08:10:43.486Z,70.60
2018-04-27T08:13:10.986Z,70.60
2018-04-27T08:15:38.486Z,70.40
2018-04-27T08:18:06.374Z,69.90
2018-04-27T08:20:40.597Z,70.00
2018-04-27T08:23:08.110Z,69.90
2018-04-27T08:25:35.662Z,68.90
2018-04-27T08:28:07.506Z,68.20
2018-04-27T08:30:35.140Z,67.80
2018-04-27T08:33:02.605Z,67.90
2018-04-27T08:35:30.146Z,67.90
2018-04-27T08:37:57.739Z,68.00
2018-04-27T08:40:25.264Z,68.10
2018-04-27T08:42:52.825Z,67.60
2018-04-27T08:45:20.363Z,67.50
2018-04-27T08:47:47.886Z,68.10
2018-04-27T08:50:16.980Z,66.30
2018-04-27T08:52:44.520Z,66.20
2018-04-27T08:55:12.520Z,64.60
2018-04-27T08:57:40.417Z,65.00
2018-04-27T09:00:07.941Z,65.00
2018-04-27T09:02:35.837Z,63.30
2018-04-27T09:05:03.333Z,63.30
2018-04-27T09:07:30.861Z,62.90
2018-04-27T09:09:58.352Z,63.20
2018-04-27T09:12:25.843Z,63.10
2018-04-27T09:14:53.741Z,64.10
2018-04-27T09:17:21.227Z,64.10
2018-04-27T09:19:48.729Z,63.90
2018-04-27T09:22:16.614Z,62.90
2018-04-27T09:24:44.191Z,62.90
2018-04-27T09:27:11.762Z,63.60
2018-04-27T09:29:39.351Z,63.30
2018-04-27T09:32:07.424Z,62.60
2018-04-27T09:34:34.975Z,62.60
2018-04-27T09:37:02.605Z,61.10
2018-04-27T09:39:30.193Z,61.90
2018-04-27T09:41:57.754Z,61.70
2018-04-27T09:44:25.333Z,62.50
2018-04-27T09:46:52.965Z,62.70
2018-04-27T09:49:20.498Z,62.00
2018-04-27T09:51:48.040Z,61.90
2018-04-27T09:54:15.591Z,62.10
2018-04-27T09:56:43.176Z,61.50
2018-04-27T09:59:10.777Z,62.40
2018-04-27T10:01:38.735Z,61.90
2018-04-27T10:04:06.726Z,61.80
2018-04-27T10:06:34.730Z,63.10
2018-04-27T10:09:02.336Z,63.10
2018-04-27T10:11:30.342Z,62.00
2018-04-27T10:13:57.954Z,62.00
2018-04-27T10:16:25.552Z,62.20
2018-04-27T10:18:53.166Z,63.80
2018-04-27T10:21:20.777Z,62.60
2018-04-27T10:23:48.367Z,62.30
2018-04-27T10:26:21.776Z,61.80
2018-04-27T10:28:49.382Z,60.70
2018-04-27T10:31:17.373Z,61.20
2018-04-27T10:33:44.956Z,61.20
2018-04-27T10:36:12.545Z,62.20
2018-04-27T10:38:40.106Z,62.70
2018-04-27T10:41:07.678Z,62.60
2018-04-27T10:43:35.670Z,62.30
2018-04-27T10:46:03.296Z,62.30
2018-04-27T10:48:30.910Z,62.00
2018-04-27T10:50:58.491Z,61.70
2018-04-27T10:53:25.991Z,61.60
2018-04-27T10:55:53.902Z,62.10
2018-04-27T10:58:21.449Z,62.10
2018-04-27T11:00:48.989Z,62.60
2018-04-27T11:03:16.555Z,61.40
2018-04-27T11:05:44.100Z,62.40
2018-04-27T11:08:13.564Z,63.50
2018-04-27T11:10:41.581Z,62.40
2018-04-27T11:13:09.106Z,62.00
2018-04-27T11:15:36.645Z,62.50
2018-04-27T11:18:04.193Z,61.50
2018-04-27T11:20:31.737Z,61.20
2018-04-27T11:22:59.280Z,61.10
2018-04-27T11:25:26.820Z,61.00
2018-04-27T11:27:54.738Z,60.80
2018-04-27T11:30:22.281Z,60.80
2018-04-27T11:32:49.794Z,60.20
2018-04-27T11:35:17.877Z,61.30
2018-04-27T11:37:45.603Z,61.30
2018-04-27T11:40:13.277Z,61.30
2018-04-27T11:42:40.907Z,61.20
2018-04-27T11:45:08.797Z,60.10
2018-04-27T11:47:36.979Z,59.00
2018-04-27T11:50:04.693Z,59.00
2018-04-27T11:52:32.726Z,59.50
2018-04-27T11:55:01.927Z,58.60
2018-04-27T11:57:29.881Z,58.60
2018-04-27T11:59:58.609Z,58.80
2018-04-27T12:02:26.385Z,58.10
2018-04-27T12:04:54.313Z,59.00
2018-04-27T12:07:22.258Z,58.90
2018-04-27T12:09:50.559Z,58.80
2018-04-27T12:12:18.550Z,58.20
2018-04-27T12:14:47.118Z,58.10
2018-04-27T12:17:15.553Z,57.60
2018-04-27T12:19:43.228Z,59.10
2018-04-27T12:22:11.401Z,57.30
2018-04-27T12:24:39.627Z,56.40
2018-04-27T12:27:07.736Z,56.40
2018-04-27T12:29:35.400Z,57.80
2018-04-27T12:32:03.353Z,55.90
2018-04-27T12:34:30.873Z,55.80
2018-04-27T12:39:32.421Z,55.20
2018-04-27T12:42:00.318Z,55.70
2018-04-27T12:44:27.811Z,55.70
2018-04-27T12:46:55.405Z,55.40
2018-04-27T12:49:23.841Z,55.00
2018-04-27T12:51:51.493Z,54.60
2018-04-27T12:54:19.128Z,54.30
2018-04-27T12:56:46.754Z,54.50
2018-04-27T12:59:14.729Z,54.30
2018-04-27T13:01:42.661Z,54.60
2018-04-27T13:04:10.271Z,54.60
2018-04-27T13:06:38.299Z,55.60
2018-04-27T13:09:05.846Z,57.00
2018-04-27T13:11:33.435Z,57.30
2018-04-27T13:14:01.435Z,55.80
2018-04-27T13:16:28.993Z,55.80
2018-04-27T13:18:56.582Z,55.70
2018-04-27T13:21:24.149Z,55.20
2018-04-27T13:23:51.688Z,54.80
2018-04-27T13:26:19.331Z,55.60
2018-04-27T13:28:46.850Z,55.50
2018-04-27T13:31:14.878Z,56.00
2018-04-27T13:33:42.452Z,56.00
2018-04-27T13:36:09.999Z,56.60
2018-04-27T13:38:45.986Z,57.50
2018-04-27T13:41:13.652Z,58.40
2018-04-27T13:43:41.243Z,57.80
2018-04-27T13:46:08.815Z,56.30
2018-04-27T13:48:37.162Z,56.50
2018-04-27T13:51:04.809Z,56.10
2018-04-27T13:53:32.355Z,56.80
2018-04-27T13:56:00.556Z,57.70
2018-04-27T13:58:28.114Z,58.20
2018-04-27T14:00:56.047Z,59.40
2018-04-27T14:03:23.584Z,59.40
2018-04-27T14:05:51.127Z,59.40
2018-04-27T14:08:18.648Z,59.20
2018-04-27T14:10:47.515Z,58.20
2018-04-27T14:13:15.093Z,58.20
2018-04-27T14:15:42.645Z,58.40
2018-04-27T14:18:10.221Z,58.30
2018-04-27T14:20:38.180Z,56.10
2018-04-27T14:23:05.757Z,56.10
2018-04-27T14:25:33.306Z,54.20
2018-04-27T14:28:01.219Z,55.60
2018-04-27T14:30:28.778Z,55.60
2018-04-27T14:32:56.376Z,55.90
2018-04-27T14:35:23.916Z,55.90
2018-04-27T14:37:51.436Z,56.40
2018-04-27T14:40:18.921Z,55.30
2018-04-27T14:42:46.408Z,55.90
2018-04-27T14:45:13.901Z,56.30
2018-04-27T14:47:41.456Z,56.80
2018-04-27T14:50:08.957Z,56.50
2018-04-27T14:52:36.480Z,57.00
2018-04-27T14:55:04.396Z,56.30
2018-04-27T14:57:31.890Z,56.30
2018-04-27T14:59:59.881Z,56.30
2018-04-27T15:02:27.614Z,56.30
2018-04-27T15:04:55.559Z,56.40
2018-04-27T15:07:23.076Z,56.40
2018-04-27T15:09:50.665Z,56.10
2018-04-27T15:12:18.195Z,56.40
2018-04-27T15:14:45.685Z,55.70
2018-04-27T15:17:13.180Z,56.20
2018-04-27T15:19:41.101Z,56.30
2018-04-27T15:22:08.577Z,56.30
2018-04-27T15:24:36.054Z,56.90
2018-04-27T15:27:04.045Z,57.80
2018-04-27T15:29:31.650Z,57.80
2018-04-27T15:31:59.245Z,58.00
2018-04-27T15:34:26.826Z,58.40
2018-04-27T15:36:54.389Z,58.70
2018-04-27T15:39:21.943Z,59.20
2018-04-27T15:41:49.510Z,58.90
2018-04-27T15:44:17.093Z,58.70
2018-04-27T15:46:44.654Z,57.50
2018-04-27T15:49:12.273Z,58.00
2018-04-27T15:51:39.830Z,58.40
2018-04-27T15:54:07.435Z,58.90
2018-04-27T15:56:34.994Z,59.40
2018-04-27T15:59:02.543Z,59.70
2018-04-27T16:01:31.107Z,60.40
2018-04-27T16:03:58.670Z,61.10
2018-04-27T16:06:26.227Z,60.50
2018-04-27T16:08:57.247Z,60.70
2018-04-27T16:11:24.876Z,60.40
2018-04-27T16:13:53.243Z,60.90
2018-04-27T16:16:26.089Z,60.80
2018-04-27T16:18:54.901Z,61.60
2018-04-27T16:21:22.509Z,61.00
2018-04-27T16:23:59.481Z,61.50
2018-04-27T16:26:27.832Z,62.30
2018-04-27T16:28:56.342Z,62.40
2018-04-27T16:31:23.868Z,62.50
2018-04-27T16:33:51.369Z,62.50
2018-04-27T16:36:18.871Z,62.80
2018-04-27T16:38:46.362Z,62.50
2018-04-27T16:41:13.890Z,63.10
2018-04-27T16:43:41.495Z,62.80
2018-04-27T16:46:09.030Z,63.50
2018-04-27T16:48:36.540Z,63.40
2018-04-27T16:51:04.053Z,63.60
2018-04-27T16:53:31.951Z,64.20
2018-04-27T16:55:59.453Z,64.20
2018-04-27T16:58:26.964Z,64.90
2018-04-27T17:00:54.486Z,64.70
2018-04-27T17:03:22.366Z,64.60
2018-04-27T17:05:49.896Z,64.60
2018-04-27T17:08:17.397Z,65.00
2018-04-27T17:10:44.888Z,65.50
2018-04-27T17:13:12.393Z,65.30
2018-04-27T17:15:40.286Z,65.60
2018-04-27T17:18:07.784Z,65.60
2018-04-27T17:20:35.270Z,65.30
2018-04-27T17:23:03.288Z,66.10
2018-04-27T17:25:30.801Z,66.10
2018-04-27T17:27:58.739Z,66.70
2018-04-27T17:30:26.240Z,66.70
2018-04-27T17:32:53.842Z,67.70
2018-04-27T17:35:21.508Z,67.70
2018-04-27T17:37:49.353Z,68.40
2018-04-27T17:40:16.877Z,68.40
2018-04-27T17:42:44.772Z,68.80
2018-04-27T17:45:12.273Z,68.70
2018-04-27T17:47:39.833Z,68.90
2018-04-27T17:50:07.324Z,69.60
2018-04-27T17:52:34.812Z,69.60
2018-04-27T17:55:02.353Z,69.70
2018-04-27T17:57:29.847Z,69.60
2018-04-27T17:59:57.333Z,69.50
2018-04-27T18:02:24.868Z,69.40
2018-04-27T18:04:52.357Z,69.30
2018-04-27T18:07:20.252Z,69.50
2018-04-27T18:09:47.764Z,69.50
2018-04-27T18:12:15.864Z,70.00
2018-04-27T18:14:43.662Z,70.40
2018-04-27T18:17:11.189Z,70.30
2018-04-27T18:19:38.721Z,70.50
2018-04-27T18:22:06.612Z,71.00
2018-04-27T18:24:34.122Z,71.00
2018-04-27T18:27:01.670Z,71.00
2018-04-27T18:29:29.192Z,71.60
2018-04-27T18:31:56.676Z,71.90
2018-04-27T18:34:24.170Z,72.30
2018-04-27T18:36:52.088Z,72.80
2018-04-27T18:39:19.632Z,72.80
2018-04-27T18:41:47.149Z,73.00
2018-04-27T18:44:14.643Z,73.30
2018-04-27T18:46:42.149Z,73.80
2018-04-27T18:49:09.658Z,74.00
2018-04-27T18:51:37.183Z,74.00
2018-04-27T18:54:04.770Z,74.50
2018-04-27T18:56:34.059Z,74.90
2018-04-27T18:59:01.938Z,75.50
2018-04-27T19:01:29.441Z,75.50
2018-04-27T19:03:56.925Z,75.90
2018-04-27T19:06:24.429Z,76.60
2018-04-27T19:08:51.972Z,77.40
2018-04-27T19:11:19.454Z,77.50
2018-04-27T19:13:46.965Z,77.70
2018-04-27T19:16:15.597Z,78.50
2018-04-27T19:18:43.116Z,78.50
2018-04-27T19:21:10.685Z,78.80
2018-04-27T19:23:38.186Z,79.30
2018-04-27T19:26:05.697Z,79.90
2018-04-27T19:28:33.205Z,80.30
2018-04-27T19:31:01.632Z,80.70
2018-04-27T19:33:29.858Z,81.30
2018-04-27T19:35:57.354Z,82.00
2018-04-27T19:38:24.985Z,83.40
2018-04-27T19:40:52.517Z,83.40
2018-04-27T19:43:20.049Z,83.90
2018-04-27T19:45:47.906Z,84.30
2018-04-27T19:48:15.494Z,84.30
2018-04-27T19:50:42.987Z,85.30
2018-04-27T19:53:10.496Z,85.40
2018-04-27T19:55:38.058Z,86.10
2018-04-27T19:58:05.790Z,86.30
2018-04-27T20:00:34.033Z,86.50
2018-04-27T20:03:01.566Z,86.40
2018-04-27T20:05:29.078Z,87.10
2018-04-27T20:07:56.656Z,87.20
2018-04-27T20:10:28.749Z,87.70
2018-04-27T20:12:56.252Z,87.70
2018-04-27T20:15:35.665Z,88.00
2018-04-27T20:18:20.964Z,88.50
2018-04-27T20:20:52.408Z,88.70
2018-04-27T20:23:21.186Z,89.20
2018-04-27T20:25:48.676Z,89.10
2018-04-27T20:28:16.322Z,89.20
2018-04-27T20:30:44.337Z,89.50
2018-04-27T20:33:11.845Z,89.50
2018-04-27T20:35:39.777Z,90.30
2018-04-27T20:38:08.975Z,90.30
2018-04-27T20:40:36.467Z,90.40
2018-04-27T20:43:06.346Z,90.50
2018-04-27T20:45:33.916Z,90.50
2018-04-27T20:48:01.429Z,91.00
2018-04-27T20:50:28.976Z,91.20
2018-04-27T20:52:57.196Z,91.90
2018-04-27T20:55:24.784Z,92.20
2018-04-27T20:57:52.744Z,92.60
2018-04-27T21:00:20.238Z,92.70
2018-04-27T21:02:48.574Z,92.50
2018-04-27T21:05:16.085Z,93.00
2018-04-27T21:07:43.650Z,95.00
2018-04-27T21:10:11.204Z,93.90
2018-04-27T21:12:38.730Z,93.90
2018-04-27T21:15:09.089Z,94.50
2018-04-27T21:17:36.569Z,94.50
2018-04-27T21:20:04.095Z,95.10
2018-04-27T21:22:31.599Z,95.70
2018-04-27T21:24:59.133Z,95.10
2018-04-27T21:27:26.653Z,95.10
2018-04-27T21:29:54.536Z,95.30
2018-04-27T21:32:22.030Z,95.30
2018-04-27T21:34:49.556Z,95.70
2018-04-27T21:37:17.067Z,96.30
2018-04-27T21:39:44.558Z,96.60
2018-04-27T21:42:16.596Z,96.70
2018-04-27T21:44:46.132Z,96.90
2018-04-27T21:47:19.495Z,96.90
2018-04-27T21:49:46.988Z,97.00
2018-04-27T21:52:14.521Z,97.00
2018-04-27T21:54:42.484Z,97.00
2018-04-27T21:57:13.225Z,97.00
2018-04-27T21:59:46.477Z,97.00
2018-04-27T22:05:48.190Z,96.90
2018-04-27T22:08:17.665Z,96.80
2018-04-27T22:10:46.092Z,96.80
2018-04-27T22:13:17.239Z,97.00
2018-04-27T22:15:44.731Z,97.00
2018-04-27T22:18:12.229Z,96.80
2018-04-27T22:20:48.009Z,97.00
2018-04-27T22:23:18.259Z,97.00
2018-04-27T22:25:47.489Z,97.00
2018-04-27T22:28:19.086Z,97.00
2018-04-27T22:30:46.593Z,97.00
2018-04-27T22:33:18.715Z,97.00
2018-04-27T22:35:49.755Z,97.00
2018-04-27T22:38:22.730Z,97.00
2018-04-27T22:40:51.184Z,97.00
2018-04-27T22:43:19.896Z,97.00
2018-04-27T22:45:50.286Z,97.00
2018-04-27T22:48:38.851Z,97.00
2018-04-27T22:51:08.869Z,97.00
2018-04-27T22:53:37.809Z,97.00
2018-04-27T22:56:05.308Z,97.00
2018-04-27T22:58:33.251Z,97.00
2018-04-27T23:01:05.176Z,97.00
2018-04-27T23:03:34.236Z,97.00
2018-04-27T23:06:01.751Z,97.00
2018-04-27T23:08:30.017Z,97.00
2018-04-27T23:11:12.405Z,97.00
2018-04-27T23:13:52.394Z,97.00
2018-04-27T23:16:22.378Z,97.00
2018-04-27T23:18:51.530Z,97.00
2018-04-27T23:21:24.314Z,97.00
2018-04-27T23:23:52.216Z,97.00
2018-04-27T23:26:19.744Z,97.00
2018-04-27T23:28:47.245Z,97.00
2018-04-27T23:31:14.728Z,97.00
2018-04-27T23:33:42.203Z,97.00
2018-04-27T23:36:10.137Z,97.00
2018-04-27T23:38:37.641Z,97.00
2018-04-27T23:41:05.115Z,97.00
2018-04-27T23:43:32.656Z,97.00
2018-04-27T23:46:00.141Z,97.00
2018-04-27T23:48:27.630Z,97.00
2018-04-27T23:50:56.935Z,97.00
2018-04-27T23:53:25.208Z,97.00
2018-04-27T23:55:52.726Z,97.00
2018-04-27T23:58:26.060Z,97.00
